createdAt,value
2022-12-22T00:02:16.535Z,100
2022-12-22T00:07:14.671Z,100
2022-12-22T00:12:12.958Z,100
2022-12-22T00:17:11.339Z,100
2022-12-22T00:22:09.679Z,100
2022-12-22T00:27:08.044Z,100
2022-12-22T00:32:06.440Z,100
2022-12-22T00:37:05.335Z,100
2022-12-22T00:42:03.530Z,100
2022-12-22T00:47:01.890Z,100
2022-12-22T00:52:00.511Z,100
2022-12-22T00:56:58.773Z,100
2022-12-22T01:01:57.075Z,100
2022-12-22T01:06:55.126Z,100
2022-12-22T01:11:53.344Z,100
2022-12-22T01:16:51.585Z,100
2022-12-22T01:21:49.953Z,100
2022-12-22T01:26:48.322Z,100
2022-12-22T01:31:46.018Z,100
2022-12-22T01:36:44.337Z,100
2022-12-22T01:41:42.619Z,100
2022-12-22T01:46:49.722Z,100
2022-12-22T01:51:46.512Z,100
2022-12-22T01:56:44.846Z,100
2022-12-22T02:01:43.543Z,100
2022-12-22T02:06:58.032Z,100
2022-12-22T02:11:48.805Z,100
2022-12-22T02:16:47.064Z,100
2022-12-22T02:21:45.416Z,100
2022-12-22T02:26:43.645Z,100
2022-12-22T02:31:41.895Z,100
2022-12-22T02:36:40.208Z,100
2022-12-22T02:41:38.594Z,100
2022-12-22T02:46:36.717Z,100
2022-12-22T02:51:34.924Z,100
2022-12-22T02:56:33.332Z,100
2022-12-22T03:01:31.650Z,100
2022-12-22T03:06:29.753Z,100
2022-12-22T03:11:27.913Z,100
2022-12-22T03:16:26.274Z,100
2022-12-22T03:21:24.608Z,100
2022-12-22T03:26:22.956Z,100
2022-12-22T03:31:21.105Z,100
2022-12-22T03:36:19.392Z,100
2022-12-22T03:41:17.603Z,100
2022-12-22T03:46:16.162Z,100
2022-12-22T03:51:14.743Z,100
2022-12-22T03:56:13.198Z,100
2022-12-22T04:01:11.618Z,100
2022-12-22T04:06:09.953Z,100
2022-12-22T04:11:08.479Z,100
2022-12-22T04:16:06.765Z,100
2022-12-22T04:21:05.509Z,100
2022-12-22T04:26:03.760Z,100
2022-12-22T04:31:02.200Z,100
2022-12-22T04:36:00.878Z,100
2022-12-22T04:40:59.248Z,100
2022-12-22T04:45:57.631Z,100
2022-12-22T04:50:56.527Z,100
2022-12-22T04:55:54.801Z,100
2022-12-22T05:00:53.281Z,100
2022-12-22T05:05:51.736Z,100
2022-12-22T05:10:50.171Z,100
2022-12-22T05:15:48.357Z,100
2022-12-22T05:20:46.578Z,100
2022-12-22T05:25:44.777Z,100
2022-12-22T05:30:43.031Z,100
2022-12-22T05:35:41.385Z,100
2022-12-22T05:40:39.667Z,100
2022-12-22T05:45:38.209Z,100
2022-12-22T05:50:36.584Z,100
2022-12-22T05:55:35.125Z,100
2022-12-22T06:00:33.440Z,100
2022-12-22T06:05:31.758Z,100
2022-12-22T06:10:30.227Z,100
2022-12-22T06:15:28.858Z,100
2022-12-22T06:20:27.483Z,100
2022-12-22T06:25:25.994Z,100
2022-12-22T06:30:27.492Z,100
2022-12-22T06:35:21.815Z,100
2022-12-22T06:40:20.268Z,100
2022-12-22T06:45:18.500Z,100
2022-12-22T06:50:16.983Z,100
2022-12-22T06:55:15.283Z,100
2022-12-22T07:00:13.775Z,100
2022-12-22T07:05:12.921Z,100
2022-12-22T07:10:17.294Z,83.7
2022-12-22T07:15:20.681Z,69.9
2022-12-22T07:20:21.480Z,63.5
2022-12-22T07:25:20.968Z,58.5
2022-12-22T07:30:20.421Z,54.9
2022-12-22T07:35:19.347Z,52.6
2022-12-22T07:40:18.552Z,49.8
2022-12-22T07:45:17.464Z,48.8
2022-12-22T07:50:17.417Z,45.7
2022-12-22T07:55:17.168Z,43.4
2022-12-22T08:00:15.944Z,42.3
2022-12-22T08:05:15.125Z,41.8
2022-12-22T08:10:14.262Z,40.4
2022-12-22T08:15:13.157Z,39.6
2022-12-22T08:20:11.653Z,38
2022-12-22T08:25:10.193Z,37.9
2022-12-22T08:30:09.084Z,37.3
2022-12-22T08:35:08.283Z,36.2
2022-12-22T08:40:07.178Z,35.4
2022-12-22T08:45:05.541Z,35.8
2022-12-22T08:50:04.224Z,35.5
2022-12-22T08:55:03.307Z,35
2022-12-22T09:00:02.164Z,33.7
2022-12-22T09:05:00.275Z,34.5
2022-12-22T09:09:59.513Z,34.1
2022-12-22T09:14:57.410Z,33.3
2022-12-22T09:19:55.272Z,33.8
2022-12-22T09:24:54.009Z,33.6
2022-12-22T09:29:52.437Z,32.8
2022-12-22T09:34:50.872Z,33
2022-12-22T09:39:49.479Z,32.3
2022-12-22T09:44:48.206Z,32.5
2022-12-22T09:49:46.808Z,31.8
2022-12-22T09:54:44.361Z,31.7
2022-12-22T09:59:42.917Z,31.4
2022-12-22T10:04:41.473Z,31.2
2022-12-22T10:09:55.212Z,30.6
2022-12-22T10:14:37.939Z,31.3
2022-12-22T10:19:36.834Z,30.7
2022-12-22T10:24:35.363Z,30.6
2022-12-22T10:29:34.000Z,29.9
2022-12-22T10:34:32.452Z,29.6
2022-12-22T10:39:39.227Z,30.2
2022-12-22T10:44:35.262Z,31.3
2022-12-22T10:54:30.873Z,31.9
2022-12-22T10:59:28.706Z,33.1
2022-12-22T11:04:26.187Z,34.1
2022-12-22T11:09:33.429Z,35.3
2022-12-22T11:14:20.014Z,37.9
2022-12-22T11:19:17.608Z,39.6
2022-12-22T11:24:14.927Z,40.3
2022-12-22T11:29:11.847Z,42.4
2022-12-22T11:34:21.172Z,44.1
2022-12-22T11:39:14.390Z,45.1
2022-12-22T11:44:12.307Z,46.2
2022-12-22T11:49:10.280Z,47.3
2022-12-22T11:54:11.003Z,49
2022-12-22T11:59:06.482Z,50.9
2022-12-22T12:04:04.590Z,52.5
2022-12-22T12:09:02.663Z,54.3
2022-12-22T12:14:00.814Z,54.8
2022-12-22T12:18:59.069Z,55.8
2022-12-22T12:23:58.505Z,56.9
2022-12-22T12:28:56.119Z,59.1
2022-12-22T12:33:54.317Z,60.1
2022-12-22T12:39:09.276Z,59.8
2022-12-22T12:43:50.826Z,61.3
2022-12-22T12:48:49.110Z,62
2022-12-22T12:53:46.841Z,64.8
2022-12-22T12:58:44.796Z,66.8
2022-12-22T13:08:41.049Z,69.9
2022-12-22T13:13:39.145Z,71.4
2022-12-22T13:18:37.430Z,72.2
2022-12-22T13:23:51.282Z,73.1
2022-12-22T13:28:34.280Z,75.4
2022-12-22T13:33:32.700Z,75.5
2022-12-22T13:38:30.836Z,75.6
2022-12-22T13:43:29.097Z,77.4
2022-12-22T13:48:27.847Z,78.2
2022-12-22T13:53:58.518Z,79.6
2022-12-22T13:58:24.353Z,79.8
2022-12-22T14:03:49.900Z,81.8
2022-12-22T14:08:20.625Z,83.9
2022-12-22T14:13:18.587Z,87.1
2022-12-22T14:18:16.836Z,88.1
2022-12-22T14:23:14.921Z,89.6
2022-12-22T14:28:12.977Z,92
2022-12-22T14:33:11.037Z,92.3
2022-12-22T14:38:08.914Z,96.1
2022-12-22T14:43:06.111Z,97.4
2022-12-22T14:48:04.029Z,99.6
2022-12-22T14:53:01.942Z,100
2022-12-22T14:58:00.996Z,100
2022-12-22T15:02:58.993Z,100
2022-12-22T15:08:06.407Z,100
2022-12-22T15:12:54.971Z,100
2022-12-22T15:17:53.102Z,100
2022-12-22T15:22:51.332Z,100
2022-12-22T15:27:49.944Z,100
2022-12-22T15:32:48.105Z,100
2022-12-22T15:37:46.432Z,100
2022-12-22T15:42:44.523Z,100
2022-12-22T15:47:42.642Z,100
2022-12-22T15:52:40.985Z,100
2022-12-22T15:57:39.293Z,100
2022-12-22T16:02:37.782Z,100
2022-12-22T16:07:36.003Z,100
2022-12-22T16:12:34.611Z,100
2022-12-22T16:17:32.827Z,100
2022-12-22T16:22:31.435Z,100
2022-12-22T16:27:29.844Z,100
2022-12-22T16:32:28.268Z,100
2022-12-22T16:37:26.640Z,100
2022-12-22T16:47:31.505Z,100
2022-12-22T16:52:29.543Z,100
2022-12-22T16:57:27.621Z,100
2022-12-22T17:02:26.082Z,100
2022-12-22T17:07:24.211Z,100
2022-12-22T17:12:22.367Z,100
2022-12-22T17:17:24.074Z,100
2022-12-22T17:22:19.002Z,100
2022-12-22T17:27:17.782Z,100
2022-12-22T17:32:15.939Z,100
2022-12-22T17:37:13.910Z,100
2022-12-22T17:42:11.233Z,100
2022-12-22T17:47:09.503Z,100
2022-12-22T17:52:07.570Z,100
2022-12-22T17:57:05.663Z,100
2022-12-22T18:02:04.034Z,100
2022-12-22T18:07:02.421Z,100
2022-12-22T18:12:01.358Z,100
2022-12-22T18:17:00.259Z,100
2022-12-22T18:21:58.867Z,100
2022-12-22T18:26:57.170Z,100
2022-12-22T18:31:55.720Z,100
2022-12-22T18:36:54.085Z,100
2022-12-22T18:41:52.164Z,100
2022-12-22T18:46:50.576Z,100
2022-12-22T18:51:49.078Z,100
2022-12-22T18:56:50.831Z,100
2022-12-22T19:01:48.595Z,100
2022-12-22T19:06:46.889Z,100
2022-12-22T19:11:45.343Z,100
2022-12-22T19:16:44.027Z,100
2022-12-22T19:21:42.247Z,100
2022-12-22T19:26:40.776Z,100
2022-12-22T19:31:39.142Z,100
2022-12-22T19:36:37.500Z,100
2022-12-22T19:41:35.703Z,100
2022-12-22T19:46:34.117Z,100
2022-12-22T19:51:32.444Z,100
2022-12-22T19:56:30.773Z,100
2022-12-22T20:01:29.155Z,100
2022-12-22T20:06:27.448Z,100
2022-12-22T20:11:25.597Z,100
2022-12-22T20:16:24.032Z,100
2022-12-22T20:21:22.481Z,100
2022-12-22T20:26:21.289Z,100
2022-12-22T20:31:19.487Z,100
2022-12-22T20:36:17.862Z,100
2022-12-22T20:41:16.467Z,100
2022-12-22T20:46:14.909Z,100
2022-12-22T20:51:13.088Z,100
2022-12-22T20:56:11.546Z,100
2022-12-22T21:01:09.807Z,100
2022-12-22T21:06:08.337Z,100
2022-12-22T21:11:06.972Z,100
2022-12-22T21:16:04.971Z,100
2022-12-22T21:21:02.920Z,100
2022-12-22T21:26:01.305Z,100
2022-12-22T21:30:59.716Z,100
2022-12-22T21:35:58.228Z,100
2022-12-22T21:40:56.725Z,100
2022-12-22T21:45:54.951Z,100
2022-12-22T21:50:53.374Z,100
2022-12-22T21:55:51.652Z,100
2022-12-22T22:00:49.887Z,100
2022-12-22T22:05:48.210Z,100
2022-12-22T22:10:47.088Z,100
2022-12-22T22:15:45.182Z,100
2022-12-22T22:20:43.584Z,100
2022-12-22T22:25:41.629Z,100
2022-12-22T22:30:39.866Z,100
2022-12-22T22:35:38.078Z,100
2022-12-22T22:40:36.335Z,100
2022-12-22T22:45:34.812Z,100
2022-12-22T22:50:33.023Z,100
2022-12-22T22:55:31.362Z,100
2022-12-22T23:00:29.377Z,100
2022-12-22T23:05:27.550Z,100
2022-12-22T23:10:25.720Z,100
2022-12-22T23:15:23.865Z,100
2022-12-22T23:20:21.958Z,100
2022-12-22T23:25:20.033Z,100
2022-12-22T23:30:18.290Z,100
2022-12-22T23:35:16.726Z,100
2022-12-22T23:40:50.210Z,100
2022-12-22T23:45:13.430Z,100
2022-12-22T23:50:11.547Z,100
2022-12-22T23:55:09.801Z,100
